EGSS/STN METAR and TAF weather

Enter ICAO airport designator
Station Type Date Time Source
EGSS METAR 2021/04/13 07:50 UTC NOAA

EGSS 130750Z AUTO 25004KT 9999 BKN048 05/M02 Q1033


Station Type Date Time Source
EGSS Decoded METAR 2021/04/13 07:50 UTC NOAA

Stansted Airport, United Kingdom (EGSS) 51-53N 000-14E 0M
Apr 13, 2021 - 03:50 AM EDT / 2021.04.13 0750 UTC
Wind: from the WSW (250 degrees) at 5 MPH (4 KT):0
Visibility: greater than 7 mile(s):0
Sky conditions: mostly cloudy
Temperature: 41 F (5 C)
Dew Point: 28 F (-2 C)
Relative Humidity: 60%
Pressure (altimeter): 30.50 in. Hg (1033 hPa)
ob: EGSS 130750Z AUTO 25004KT 9999 BKN048 05/M02 Q1033
cycle: 8

Station Type Date Time Source
EGSS TAF 2021/04/13 06:09 UTC NOAA

TAF EGSS 130500Z 1306/1412 28005KT 9999 FEW040 PROB30 1403/1408 6000
BECMG 1408/1411 04010KT

Example: see airport list